sensor_id;sensor_type;location;lat;lon;timestamp;P1;durP1;ratioP1;P2;durP2;ratioP2
11777;SDS011;5946;51.770;8.548;2023-05-16T00:00:19;21.30;;;15.47;;
11777;SDS011;5946;51.770;8.548;2023-05-16T00:02:45;17.60;;;15.27;;
11777;SDS011;5946;51.770;8.548;2023-05-16T00:05:11;20.57;;;16.37;;
11777;SDS011;5946;51.770;8.548;2023-05-16T00:07:42;19.30;;;15.40;;
11777;SDS011;5946;51.770;8.548;2023-05-16T00:10:09;17.80;;;14.77;;
11777;SDS011;5946;51.770;8.548;2023-05-16T00:12:35;17.50;;;14.53;;
11777;SDS011;5946;51.770;8.548;2023-05-16T00:15:03;17.97;;;14.07;;
11777;SDS011;5946;51.770;8.548;2023-05-16T00:17:30;17.63;;;13.10;;
11777;SDS011;5946;51.770;8.548;2023-05-16T00:19:56;16.43;;;12.43;;
11777;SDS011;5946;51.770;8.548;2023-05-16T00:22:25;13.47;;;11.50;;
11777;SDS011;5946;51.770;8.548;2023-05-16T00:24:51;13.20;;;11.33;;
11777;SDS011;5946;51.770;8.548;2023-05-16T00:27:17;13.87;;;11.00;;
11777;SDS011;5946;51.770;8.548;2023-05-16T00:29:43;12.80;;;10.57;;
11777;SDS011;5946;51.770;8.548;2023-05-16T00:32:09;12.57;;;10.30;;
11777;SDS011;5946;51.770;8.548;2023-05-16T00:34:35;13.67;;;10.73;;
11777;SDS011;5946;51.770;8.548;2023-05-16T00:37:01;12.93;;;10.53;;
11777;SDS011;5946;51.770;8.548;2023-05-16T00:39:27;11.80;;;9.47;;
11777;SDS011;5946;51.770;8.548;2023-05-16T00:41:53;11.17;;;9.80;;
11777;SDS011;5946;51.770;8.548;2023-05-16T00:44:20;12.57;;;9.53;;
11777;SDS011;5946;51.770;8.548;2023-05-16T00:46:47;11.10;;;9.73;;
11777;SDS011;5946;51.770;8.548;2023-05-16T00:49:12;12.47;;;9.70;;
11777;SDS011;5946;51.770;8.548;2023-05-16T00:51:38;12.43;;;9.50;;
11777;SDS011;5946;51.770;8.548;2023-05-16T00:54:05;12.30;;;9.97;;
11777;SDS011;5946;51.770;8.548;2023-05-16T00:56:31;16.10;;;10.90;;
11777;SDS011;5946;51.770;8.548;2023-05-16T00:58:57;11.97;;;9.60;;
11777;SDS011;5946;51.770;8.548;2023-05-16T01:01:24;15.00;;;9.83;;
11777;SDS011;5946;51.770;8.548;2023-05-16T01:03:51;11.87;;;9.77;;
11777;SDS011;5946;51.770;8.548;2023-05-16T01:06:17;12.00;;;9.03;;
11777;SDS011;5946;51.770;8.548;2023-05-16T01:08:43;12.37;;;10.50;;
11777;SDS011;5946;51.770;8.548;2023-05-16T01:13:45;13.50;;;10.53;;
11777;SDS011;5946;51.770;8.548;2023-05-16T01:16:19;14.10;;;10.53;;
11777;SDS011;5946;51.770;8.548;2023-05-16T01:18:51;15.13;;;10.30;;
11777;SDS011;5946;51.770;8.548;2023-05-16T01:21:23;13.27;;;9.83;;
11777;SDS011;5946;51.770;8.548;2023-05-16T01:23:57;13.03;;;9.87;;
11777;SDS011;5946;51.770;8.548;2023-05-16T01:26:25;15.43;;;10.73;;
11777;SDS011;5946;51.770;8.548;2023-05-16T01:28:52;11.53;;;9.33;;
11777;SDS011;5946;51.770;8.548;2023-05-16T01:31:18;11.00;;;9.53;;
11777;SDS011;5946;51.770;8.548;2023-05-16T01:33:45;13.10;;;9.60;;
11777;SDS011;5946;51.770;8.548;2023-05-16T01:42:02;11.27;;;9.27;;
11777;SDS011;5946;51.770;8.548;2023-05-16T01:46:57;10.27;;;8.50;;
11777;SDS011;5946;51.770;8.548;2023-05-16T01:49:25;10.60;;;7.93;;
11777;SDS011;5946;51.770;8.548;2023-05-16T01:51:55;9.83;;;7.93;;
11777;SDS011;5946;51.770;8.548;2023-05-16T01:54:23;8.37;;;7.10;;
11777;SDS011;5946;51.770;8.548;2023-05-16T01:56:53;10.50;;;7.57;;
11777;SDS011;5946;51.770;8.548;2023-05-16T01:59:19;9.37;;;6.30;;
11777;SDS011;5946;51.770;8.548;2023-05-16T02:01:46;8.00;;;6.67;;
11777;SDS011;5946;51.770;8.548;2023-05-16T02:04:12;10.60;;;7.00;;
11777;SDS011;5946;51.770;8.548;2023-05-16T02:06:39;8.67;;;6.47;;
11777;SDS011;5946;51.770;8.548;2023-05-16T02:09:05;10.23;;;7.10;;
11777;SDS011;5946;51.770;8.548;2023-05-16T02:11:32;7.37;;;6.57;;
11777;SDS011;5946;51.770;8.548;2023-05-16T02:13:57;8.63;;;6.60;;
11777;SDS011;5946;51.770;8.548;2023-05-16T02:16:23;10.00;;;6.73;;
11777;SDS011;5946;51.770;8.548;2023-05-16T02:18:49;8.07;;;6.53;;
11777;SDS011;5946;51.770;8.548;2023-05-16T02:21:15;14.37;;;7.17;;
11777;SDS011;5946;51.770;8.548;2023-05-16T02:23:41;8.67;;;6.77;;
11777;SDS011;5946;51.770;8.548;2023-05-16T02:26:08;10.03;;;6.53;;
11777;SDS011;5946;51.770;8.548;2023-05-16T02:28:34;7.97;;;6.30;;
11777;SDS011;5946;51.770;8.548;2023-05-16T02:31:00;7.00;;;6.30;;
11777;SDS011;5946;51.770;8.548;2023-05-16T02:33:27;8.20;;;6.10;;
11777;SDS011;5946;51.770;8.548;2023-05-16T02:35:53;10.20;;;6.30;;
11777;SDS011;5946;51.770;8.548;2023-05-16T02:38:19;7.63;;;5.20;;
11777;SDS011;5946;51.770;8.548;2023-05-16T02:40:45;6.07;;;4.60;;
11777;SDS011;5946;51.770;8.548;2023-05-16T02:43:12;3.93;;;2.60;;
11777;SDS011;5946;51.770;8.548;2023-05-16T02:45:38;5.90;;;2.67;;
11777;SDS011;5946;51.770;8.548;2023-05-16T02:48:04;6.43;;;2.70;;
11777;SDS011;5946;51.770;8.548;2023-05-16T02:50:30;5.17;;;2.83;;
11777;SDS011;5946;51.770;8.548;2023-05-16T02:52:56;5.97;;;3.10;;
11777;SDS011;5946;51.770;8.548;2023-05-16T02:55:23;9.73;;;3.00;;
11777;SDS011;5946;51.770;8.548;2023-05-16T02:57:50;6.87;;;2.90;;
11777;SDS011;5946;51.770;8.548;2023-05-16T03:00:16;7.37;;;3.50;;
11777;SDS011;5946;51.770;8.548;2023-05-16T03:02:42;5.57;;;3.10;;
11777;SDS011;5946;51.770;8.548;2023-05-16T03:05:09;8.23;;;3.10;;
11777;SDS011;5946;51.770;8.548;2023-05-16T03:07:36;7.93;;;3.57;;
11777;SDS011;5946;51.770;8.548;2023-05-16T03:10:02;6.70;;;3.93;;
11777;SDS011;5946;51.770;8.548;2023-05-16T03:12:28;9.03;;;3.73;;
11777;SDS011;5946;51.770;8.548;2023-05-16T03:14:54;7.33;;;3.63;;
11777;SDS011;5946;51.770;8.548;2023-05-16T03:17:20;5.03;;;4.00;;
11777;SDS011;5946;51.770;8.548;2023-05-16T03:19:46;9.83;;;4.40;;
11777;SDS011;5946;51.770;8.548;2023-05-16T03:22:12;6.07;;;4.53;;
11777;SDS011;5946;51.770;8.548;2023-05-16T03:24:38;9.50;;;4.70;;
11777;SDS011;5946;51.770;8.548;2023-05-16T03:27:04;11.87;;;4.83;;
11777;SDS011;5946;51.770;8.548;2023-05-16T03:29:30;11.00;;;4.73;;
11777;SDS011;5946;51.770;8.548;2023-05-16T03:31:56;8.93;;;4.67;;
11777;SDS011;5946;51.770;8.548;2023-05-16T03:34:22;13.67;;;5.33;;
11777;SDS011;5946;51.770;8.548;2023-05-16T03:36:48;12.20;;;5.50;;
11777;SDS011;5946;51.770;8.548;2023-05-16T03:39:15;12.03;;;5.00;;
11777;SDS011;5946;51.770;8.548;2023-05-16T03:41:41;10.37;;;4.87;;
11777;SDS011;5946;51.770;8.548;2023-05-16T03:44:07;11.40;;;4.80;;
11777;SDS011;5946;51.770;8.548;2023-05-16T03:46:33;13.83;;;5.30;;
11777;SDS011;5946;51.770;8.548;2023-05-16T03:48:59;11.97;;;5.10;;
11777;SDS011;5946;51.770;8.548;2023-05-16T03:51:26;15.43;;;5.47;;
11777;SDS011;5946;51.770;8.548;2023-05-16T03:53:52;13.80;;;4.90;;
11777;SDS011;5946;51.770;8.548;2023-05-16T03:56:18;14.37;;;5.00;;
11777;SDS011;5946;51.770;8.548;2023-05-16T03:58:45;11.00;;;4.80;;
11777;SDS011;5946;51.770;8.548;2023-05-16T04:01:11;13.53;;;4.90;;
11777;SDS011;5946;51.770;8.548;2023-05-16T04:03:37;13.60;;;4.50;;
11777;SDS011;5946;51.770;8.548;2023-05-16T04:06:03;12.27;;;4.80;;
11777;SDS011;5946;51.770;8.548;2023-05-16T04:08:29;12.53;;;5.10;;
11777;SDS011;5946;51.770;8.548;2023-05-16T04:10:55;14.37;;;5.60;;
11777;SDS011;5946;51.770;8.548;2023-05-16T04:13:21;8.33;;;4.57;;
11777;SDS011;5946;51.770;8.548;2023-05-16T04:15:47;18.43;;;6.20;;
11777;SDS011;5946;51.770;8.548;2023-05-16T04:18:13;18.87;;;5.60;;
11777;SDS011;5946;51.770;8.548;2023-05-16T04:20:41;12.23;;;5.93;;
11777;SDS011;5946;51.770;8.548;2023-05-16T04:23:07;12.13;;;5.87;;
11777;SDS011;5946;51.770;8.548;2023-05-16T04:25:34;16.83;;;5.50;;
11777;SDS011;5946;51.770;8.548;2023-05-16T04:28:00;13.97;;;5.23;;
11777;SDS011;5946;51.770;8.548;2023-05-16T04:30:26;10.67;;;5.30;;
11777;SDS011;5946;51.770;8.548;2023-05-16T04:32:52;18.60;;;5.67;;
11777;SDS011;5946;51.770;8.548;2023-05-16T04:35:19;10.57;;;5.37;;
11777;SDS011;5946;51.770;8.548;2023-05-16T04:37:46;13.63;;;5.00;;
11777;SDS011;5946;51.770;8.548;2023-05-16T04:40:12;13.03;;;4.83;;
11777;SDS011;5946;51.770;8.548;2023-05-16T04:42:38;15.23;;;5.07;;
11777;SDS011;5946;51.770;8.548;2023-05-16T04:45:05;16.50;;;4.40;;
11777;SDS011;5946;51.770;8.548;2023-05-16T04:47:34;15.33;;;4.53;;
11777;SDS011;5946;51.770;8.548;2023-05-16T04:50:01;14.77;;;3.63;;
11777;SDS011;5946;51.770;8.548;2023-05-16T04:52:27;8.80;;;3.60;;
11777;SDS011;5946;51.770;8.548;2023-05-16T04:54:53;12.73;;;3.80;;
11777;SDS011;5946;51.770;8.548;2023-05-16T04:57:19;14.17;;;3.47;;
11777;SDS011;5946;51.770;8.548;2023-05-16T04:59:45;11.47;;;3.17;;
11777;SDS011;5946;51.770;8.548;2023-05-16T05:02:11;12.70;;;2.83;;
11777;SDS011;5946;51.770;8.548;2023-05-16T05:04:36;11.67;;;2.80;;
11777;SDS011;5946;51.770;8.548;2023-05-16T05:07:02;11.33;;;3.17;;
11777;SDS011;5946;51.770;8.548;2023-05-16T05:09:28;12.90;;;3.23;;
11777;SDS011;5946;51.770;8.548;2023-05-16T05:11:55;14.80;;;3.20;;
11777;SDS011;5946;51.770;8.548;2023-05-16T05:14:20;11.90;;;2.57;;
11777;SDS011;5946;51.770;8.548;2023-05-16T05:16:46;16.17;;;2.87;;
11777;SDS011;5946;51.770;8.548;2023-05-16T05:19:12;15.53;;;2.70;;
11777;SDS011;5946;51.770;8.548;2023-05-16T05:21:38;8.83;;;2.63;;
11777;SDS011;5946;51.770;8.548;2023-05-16T05:24:04;12.87;;;2.83;;
11777;SDS011;5946;51.770;8.548;2023-05-16T05:26:30;10.13;;;2.20;;
11777;SDS011;5946;51.770;8.548;2023-05-16T05:28:56;15.63;;;2.90;;
11777;SDS011;5946;51.770;8.548;2023-05-16T05:31:22;11.67;;;2.77;;
11777;SDS011;5946;51.770;8.548;2023-05-16T05:33:48;8.23;;;2.17;;
11777;SDS011;5946;51.770;8.548;2023-05-16T05:36:14;10.97;;;2.40;;
11777;SDS011;5946;51.770;8.548;2023-05-16T05:38:40;13.03;;;2.80;;
11777;SDS011;5946;51.770;8.548;2023-05-16T05:41:06;13.10;;;2.47;;
11777;SDS011;5946;51.770;8.548;2023-05-16T05:43:32;10.60;;;3.13;;
11777;SDS011;5946;51.770;8.548;2023-05-16T05:45:59;12.23;;;2.50;;
11777;SDS011;5946;51.770;8.548;2023-05-16T05:48:25;6.90;;;2.17;;
11777;SDS011;5946;51.770;8.548;2023-05-16T05:50:52;11.47;;;2.67;;
11777;SDS011;5946;51.770;8.548;2023-05-16T05:53:18;13.83;;;2.57;;
11777;SDS011;5946;51.770;8.548;2023-05-16T05:55:44;10.20;;;2.80;;
11777;SDS011;5946;51.770;8.548;2023-05-16T05:58:11;15.97;;;2.93;;
11777;SDS011;5946;51.770;8.548;2023-05-16T06:00:36;16.10;;;2.70;;
11777;SDS011;5946;51.770;8.548;2023-05-16T06:03:02;12.90;;;2.70;;
11777;SDS011;5946;51.770;8.548;2023-05-16T06:05:29;16.23;;;2.87;;
11777;SDS011;5946;51.770;8.548;2023-05-16T06:07:55;10.90;;;2.80;;
11777;SDS011;5946;51.770;8.548;2023-05-16T06:10:21;11.67;;;2.50;;
11777;SDS011;5946;51.770;8.548;2023-05-16T06:12:47;12.67;;;2.70;;
11777;SDS011;5946;51.770;8.548;2023-05-16T06:15:13;12.30;;;2.90;;
11777;SDS011;5946;51.770;8.548;2023-05-16T06:17:39;10.37;;;2.83;;
11777;SDS011;5946;51.770;8.548;2023-05-16T06:20:06;15.07;;;2.77;;
11777;SDS011;5946;51.770;8.548;2023-05-16T06:22:32;13.53;;;2.90;;
11777;SDS011;5946;51.770;8.548;2023-05-16T06:24:58;14.00;;;2.73;;
11777;SDS011;5946;51.770;8.548;2023-05-16T06:27:24;10.83;;;2.40;;
11777;SDS011;5946;51.770;8.548;2023-05-16T06:29:50;14.20;;;2.90;;
11777;SDS011;5946;51.770;8.548;2023-05-16T06:32:16;12.23;;;2.50;;
11777;SDS011;5946;51.770;8.548;2023-05-16T06:34:42;12.27;;;2.83;;
11777;SDS011;5946;51.770;8.548;2023-05-16T06:37:08;12.77;;;2.80;;
11777;SDS011;5946;51.770;8.548;2023-05-16T06:39:34;11.23;;;2.67;;
11777;SDS011;5946;51.770;8.548;2023-05-16T06:42:00;11.53;;;2.47;;
11777;SDS011;5946;51.770;8.548;2023-05-16T06:44:25;18.00;;;2.60;;
11777;SDS011;5946;51.770;8.548;2023-05-16T06:46:51;15.90;;;2.67;;
11777;SDS011;5946;51.770;8.548;2023-05-16T06:49:17;13.00;;;2.67;;
11777;SDS011;5946;51.770;8.548;2023-05-16T06:51:43;11.77;;;2.70;;
11777;SDS011;5946;51.770;8.548;2023-05-16T06:54:09;13.37;;;2.77;;
11777;SDS011;5946;51.770;8.548;2023-05-16T06:56:35;13.30;;;2.60;;
11777;SDS011;5946;51.770;8.548;2023-05-16T06:59:01;14.30;;;2.60;;
11777;SDS011;5946;51.770;8.548;2023-05-16T07:01:27;11.70;;;2.60;;
11777;SDS011;5946;51.770;8.548;2023-05-16T07:03:53;14.17;;;3.03;;
11777;SDS011;5946;51.770;8.548;2023-05-16T07:06:19;12.77;;;2.60;;
11777;SDS011;5946;51.770;8.548;2023-05-16T07:08:45;10.77;;;2.50;;
11777;SDS011;5946;51.770;8.548;2023-05-16T07:11:11;13.07;;;3.03;;
11777;SDS011;5946;51.770;8.548;2023-05-16T07:13:37;11.47;;;2.40;;
11777;SDS011;5946;51.770;8.548;2023-05-16T07:16:03;12.33;;;2.37;;
11777;SDS011;5946;51.770;8.548;2023-05-16T07:18:31;12.40;;;2.53;;
11777;SDS011;5946;51.770;8.548;2023-05-16T07:20:57;15.53;;;2.67;;
11777;SDS011;5946;51.770;8.548;2023-05-16T07:23:23;17.13;;;2.67;;
11777;SDS011;5946;51.770;8.548;2023-05-16T07:25:49;14.17;;;2.20;;
11777;SDS011;5946;51.770;8.548;2023-05-16T07:28:15;11.07;;;2.10;;
11777;SDS011;5946;51.770;8.548;2023-05-16T07:30:41;10.13;;;2.33;;
11777;SDS011;5946;51.770;8.548;2023-05-16T07:33:07;13.57;;;2.70;;
11777;SDS011;5946;51.770;8.548;2023-05-16T07:35:33;10.10;;;2.40;;
11777;SDS011;5946;51.770;8.548;2023-05-16T07:37:59;9.10;;;2.70;;
11777;SDS011;5946;51.770;8.548;2023-05-16T07:40:25;7.97;;;2.00;;
11777;SDS011;5946;51.770;8.548;2023-05-16T07:42:53;8.13;;;2.17;;
11777;SDS011;5946;51.770;8.548;2023-05-16T07:45:19;10.03;;;2.23;;
11777;SDS011;5946;51.770;8.548;2023-05-16T07:47:45;11.67;;;2.80;;
11777;SDS011;5946;51.770;8.548;2023-05-16T07:50:11;7.30;;;2.20;;
11777;SDS011;5946;51.770;8.548;2023-05-16T07:52:37;14.70;;;3.00;;
11777;SDS011;5946;51.770;8.548;2023-05-16T07:55:03;14.33;;;2.43;;
11777;SDS011;5946;51.770;8.548;2023-05-16T07:57:30;12.67;;;2.33;;
11777;SDS011;5946;51.770;8.548;2023-05-16T07:59:56;17.37;;;2.53;;
11777;SDS011;5946;51.770;8.548;2023-05-16T08:02:22;9.73;;;2.33;;
11777;SDS011;5946;51.770;8.548;2023-05-16T08:04:54;12.07;;;2.63;;
11777;SDS011;5946;51.770;8.548;2023-05-16T08:07:20;14.80;;;2.50;;
11777;SDS011;5946;51.770;8.548;2023-05-16T08:09:46;7.60;;;1.93;;
11777;SDS011;5946;51.770;8.548;2023-05-16T08:12:12;10.20;;;2.67;;
11777;SDS011;5946;51.770;8.548;2023-05-16T08:14:38;7.97;;;2.10;;
11777;SDS011;5946;51.770;8.548;2023-05-16T08:17:04;9.17;;;2.27;;
11777;SDS011;5946;51.770;8.548;2023-05-16T08:19:30;6.33;;;1.70;;
11777;SDS011;5946;51.770;8.548;2023-05-16T08:21:57;6.20;;;2.00;;
11777;SDS011;5946;51.770;8.548;2023-05-16T08:24:23;9.47;;;1.83;;
11777;SDS011;5946;51.770;8.548;2023-05-16T08:26:49;6.17;;;1.70;;
11777;SDS011;5946;51.770;8.548;2023-05-16T08:29:15;10.60;;;1.80;;
11777;SDS011;5946;51.770;8.548;2023-05-16T08:31:41;7.13;;;1.90;;
11777;SDS011;5946;51.770;8.548;2023-05-16T08:34:07;7.17;;;2.13;;
11777;SDS011;5946;51.770;8.548;2023-05-16T08:36:34;5.60;;;1.63;;
11777;SDS011;5946;51.770;8.548;2023-05-16T08:39:00;11.30;;;2.20;;
11777;SDS011;5946;51.770;8.548;2023-05-16T08:41:26;7.83;;;1.70;;
11777;SDS011;5946;51.770;8.548;2023-05-16T08:43:52;6.30;;;1.90;;
11777;SDS011;5946;51.770;8.548;2023-05-16T08:46:19;4.57;;;1.53;;
11777;SDS011;5946;51.770;8.548;2023-05-16T08:48:46;8.50;;;1.77;;
11777;SDS011;5946;51.770;8.548;2023-05-16T08:51:15;7.07;;;1.70;;
11777;SDS011;5946;51.770;8.548;2023-05-16T08:53:44;8.40;;;1.57;;
11777;SDS011;5946;51.770;8.548;2023-05-16T08:56:11;4.53;;;1.47;;
11777;SDS011;5946;51.770;8.548;2023-05-16T08:58:37;6.67;;;1.80;;
11777;SDS011;5946;51.770;8.548;2023-05-16T09:01:04;9.77;;;2.13;;
11777;SDS011;5946;51.770;8.548;2023-05-16T09:03:34;7.87;;;1.70;;
11777;SDS011;5946;51.770;8.548;2023-05-16T09:06:00;8.30;;;1.87;;
11777;SDS011;5946;51.770;8.548;2023-05-16T09:08:26;9.60;;;1.90;;
11777;SDS011;5946;51.770;8.548;2023-05-16T09:10:53;7.47;;;1.50;;
11777;SDS011;5946;51.770;8.548;2023-05-16T09:13:19;8.43;;;1.90;;
11777;SDS011;5946;51.770;8.548;2023-05-16T09:15:45;8.13;;;1.60;;
11777;SDS011;5946;51.770;8.548;2023-05-16T09:18:11;6.87;;;1.83;;
11777;SDS011;5946;51.770;8.548;2023-05-16T09:20:42;8.37;;;1.63;;
11777;SDS011;5946;51.770;8.548;2023-05-16T09:23:10;9.47;;;2.13;;
11777;SDS011;5946;51.770;8.548;2023-05-16T09:25:36;8.67;;;2.20;;
11777;SDS011;5946;51.770;8.548;2023-05-16T09:28:05;8.70;;;1.80;;
11777;SDS011;5946;51.770;8.548;2023-05-16T09:30:35;5.43;;;1.70;;
11777;SDS011;5946;51.770;8.548;2023-05-16T09:33:05;3.30;;;1.43;;
11777;SDS011;5946;51.770;8.548;2023-05-16T09:35:31;8.87;;;1.97;;
11777;SDS011;5946;51.770;8.548;2023-05-16T09:37:57;6.47;;;2.07;;
11777;SDS011;5946;51.770;8.548;2023-05-16T09:40:23;8.93;;;1.70;;
11777;SDS011;5946;51.770;8.548;2023-05-16T09:43:02;4.87;;;1.50;;
11777;SDS011;5946;51.770;8.548;2023-05-16T09:45:29;6.87;;;1.87;;
11777;SDS011;5946;51.770;8.548;2023-05-16T09:48:03;6.73;;;1.73;;
11777;SDS011;5946;51.770;8.548;2023-05-16T09:50:31;7.50;;;2.00;;
11777;SDS011;5946;51.770;8.548;2023-05-16T09:52:57;7.40;;;1.50;;
11777;SDS011;5946;51.770;8.548;2023-05-16T09:55:23;8.53;;;1.83;;
11777;SDS011;5946;51.770;8.548;2023-05-16T09:57:49;7.33;;;1.80;;
11777;SDS011;5946;51.770;8.548;2023-05-16T10:00:15;9.03;;;2.37;;
11777;SDS011;5946;51.770;8.548;2023-05-16T10:02:41;7.77;;;1.90;;
11777;SDS011;5946;51.770;8.548;2023-05-16T10:05:08;5.60;;;1.80;;
11777;SDS011;5946;51.770;8.548;2023-05-16T10:07:34;8.90;;;1.50;;
11777;SDS011;5946;51.770;8.548;2023-05-16T10:10:06;6.10;;;1.57;;
11777;SDS011;5946;51.770;8.548;2023-05-16T10:12:33;6.00;;;1.40;;
11777;SDS011;5946;51.770;8.548;2023-05-16T10:14:59;4.37;;;1.47;;
11777;SDS011;5946;51.770;8.548;2023-05-16T10:17:26;5.30;;;1.43;;
11777;SDS011;5946;51.770;8.548;2023-05-16T10:19:53;6.57;;;1.50;;
11777;SDS011;5946;51.770;8.548;2023-05-16T10:22:19;6.10;;;1.40;;
11777;SDS011;5946;51.770;8.548;2023-05-16T10:24:47;5.10;;;1.40;;
11777;SDS011;5946;51.770;8.548;2023-05-16T10:27:15;5.83;;;1.53;;
11777;SDS011;5946;51.770;8.548;2023-05-16T10:29:41;6.83;;;1.80;;
11777;SDS011;5946;51.770;8.548;2023-05-16T10:32:07;5.77;;;1.43;;
11777;SDS011;5946;51.770;8.548;2023-05-16T10:34:35;6.20;;;1.50;;
11777;SDS011;5946;51.770;8.548;2023-05-16T10:37:01;3.23;;;1.37;;
11777;SDS011;5946;51.770;8.548;2023-05-16T10:39:28;5.53;;;1.27;;
11777;SDS011;5946;51.770;8.548;2023-05-16T10:41:54;6.37;;;1.60;;
11777;SDS011;5946;51.770;8.548;2023-05-16T10:44:20;6.73;;;1.50;;
11777;SDS011;5946;51.770;8.548;2023-05-16T10:46:46;4.77;;;1.33;;
11777;SDS011;5946;51.770;8.548;2023-05-16T10:49:19;7.73;;;1.80;;
11777;SDS011;5946;51.770;8.548;2023-05-16T10:51:46;7.67;;;1.23;;
11777;SDS011;5946;51.770;8.548;2023-05-16T10:54:14;5.13;;;1.30;;
11777;SDS011;5946;51.770;8.548;2023-05-16T10:56:43;6.33;;;1.30;;
11777;SDS011;5946;51.770;8.548;2023-05-16T10:59:22;8.50;;;1.53;;
11777;SDS011;5946;51.770;8.548;2023-05-16T11:01:52;6.83;;;1.60;;
11777;SDS011;5946;51.770;8.548;2023-05-16T11:04:18;5.43;;;1.57;;
11777;SDS011;5946;51.770;8.548;2023-05-16T11:06:45;4.27;;;1.60;;
11777;SDS011;5946;51.770;8.548;2023-05-16T11:11:44;4.43;;;1.30;;
11777;SDS011;5946;51.770;8.548;2023-05-16T11:14:44;5.60;;;1.30;;
11777;SDS011;5946;51.770;8.548;2023-05-16T11:19:45;8.23;;;1.50;;
11777;SDS011;5946;51.770;8.548;2023-05-16T11:24:51;6.77;;;1.20;;
11777;SDS011;5946;51.770;8.548;2023-05-16T11:27:20;6.27;;;1.20;;
11777;SDS011;5946;51.770;8.548;2023-05-16T11:29:47;5.13;;;1.50;;
11777;SDS011;5946;51.770;8.548;2023-05-16T11:32:13;4.70;;;1.30;;
11777;SDS011;5946;51.770;8.548;2023-05-16T11:34:39;8.33;;;1.50;;
11777;SDS011;5946;51.770;8.548;2023-05-16T11:37:06;5.60;;;1.33;;
11777;SDS011;5946;51.770;8.548;2023-05-16T11:39:32;5.83;;;1.17;;
11777;SDS011;5946;51.770;8.548;2023-05-16T11:41:58;3.40;;;1.37;;
11777;SDS011;5946;51.770;8.548;2023-05-16T11:44:24;5.47;;;1.53;;
11777;SDS011;5946;51.770;8.548;2023-05-16T11:46:50;6.40;;;1.60;;
11777;SDS011;5946;51.770;8.548;2023-05-16T11:49:16;20.93;;;2.03;;
11777;SDS011;5946;51.770;8.548;2023-05-16T11:51:42;5.17;;;1.60;;
11777;SDS011;5946;51.770;8.548;2023-05-16T11:54:08;5.33;;;1.33;;
11777;SDS011;5946;51.770;8.548;2023-05-16T11:56:35;4.43;;;1.63;;
11777;SDS011;5946;51.770;8.548;2023-05-16T11:59:01;6.40;;;1.43;;
11777;SDS011;5946;51.770;8.548;2023-05-16T12:01:30;4.87;;;1.30;;
11777;SDS011;5946;51.770;8.548;2023-05-16T12:03:56;7.80;;;1.40;;
11777;SDS011;5946;51.770;8.548;2023-05-16T12:06:24;4.70;;;1.20;;
11777;SDS011;5946;51.770;8.548;2023-05-16T12:08:50;5.90;;;1.47;;
11777;SDS011;5946;51.770;8.548;2023-05-16T12:11:17;9.90;;;2.17;;
11777;SDS011;5946;51.770;8.548;2023-05-16T12:13:43;4.87;;;1.13;;
11777;SDS011;5946;51.770;8.548;2023-05-16T12:16:10;6.00;;;1.33;;
11777;SDS011;5946;51.770;8.548;2023-05-16T12:18:37;6.17;;;1.50;;
11777;SDS011;5946;51.770;8.548;2023-05-16T12:21:03;5.50;;;1.50;;
11777;SDS011;5946;51.770;8.548;2023-05-16T12:23:31;4.30;;;1.33;;
11777;SDS011;5946;51.770;8.548;2023-05-16T12:25:57;7.13;;;1.50;;
11777;SDS011;5946;51.770;8.548;2023-05-16T12:28:25;5.33;;;1.40;;
11777;SDS011;5946;51.770;8.548;2023-05-16T12:30:55;3.67;;;1.00;;
11777;SDS011;5946;51.770;8.548;2023-05-16T12:33:21;6.03;;;0.97;;
11777;SDS011;5946;51.770;8.548;2023-05-16T12:35:47;4.03;;;1.20;;
11777;SDS011;5946;51.770;8.548;2023-05-16T12:38:15;3.37;;;1.03;;
11777;SDS011;5946;51.770;8.548;2023-05-16T12:40:42;2.97;;;1.27;;
11777;SDS011;5946;51.770;8.548;2023-05-16T12:43:12;4.33;;;1.20;;
11777;SDS011;5946;51.770;8.548;2023-05-16T12:45:38;3.40;;;1.10;;
11777;SDS011;5946;51.770;8.548;2023-05-16T12:48:05;2.13;;;1.00;;
11777;SDS011;5946;51.770;8.548;2023-05-16T12:50:37;3.67;;;1.10;;
11777;SDS011;5946;51.770;8.548;2023-05-16T12:53:03;2.60;;;1.30;;
11777;SDS011;5946;51.770;8.548;2023-05-16T12:55:30;2.73;;;1.00;;
11777;SDS011;5946;51.770;8.548;2023-05-16T12:57:56;3.67;;;1.00;;
11777;SDS011;5946;51.770;8.548;2023-05-16T13:00:22;2.63;;;1.00;;
11777;SDS011;5946;51.770;8.548;2023-05-16T13:02:48;3.30;;;1.40;;
11777;SDS011;5946;51.770;8.548;2023-05-16T13:05:14;3.90;;;0.90;;
11777;SDS011;5946;51.770;8.548;2023-05-16T13:07:41;4.53;;;1.47;;
11777;SDS011;5946;51.770;8.548;2023-05-16T13:10:08;5.57;;;1.23;;
11777;SDS011;5946;51.770;8.548;2023-05-16T13:12:37;6.50;;;1.40;;
11777;SDS011;5946;51.770;8.548;2023-05-16T13:15:03;1.60;;;0.90;;
11777;SDS011;5946;51.770;8.548;2023-05-16T13:17:31;2.93;;;1.33;;
11777;SDS011;5946;51.770;8.548;2023-05-16T13:19:57;4.50;;;1.20;;
11777;SDS011;5946;51.770;8.548;2023-05-16T13:22:23;2.77;;;1.10;;
11777;SDS011;5946;51.770;8.548;2023-05-16T13:24:49;5.37;;;1.17;;
11777;SDS011;5946;51.770;8.548;2023-05-16T13:27:15;2.80;;;1.40;;
11777;SDS011;5946;51.770;8.548;2023-05-16T13:29:42;1.57;;;0.90;;
11777;SDS011;5946;51.770;8.548;2023-05-16T13:32:08;4.10;;;1.40;;
11777;SDS011;5946;51.770;8.548;2023-05-16T13:34:34;4.87;;;1.30;;
11777;SDS011;5946;51.770;8.548;2023-05-16T13:37:00;4.13;;;1.60;;
11777;SDS011;5946;51.770;8.548;2023-05-16T13:39:26;8.53;;;2.67;;
11777;SDS011;5946;51.770;8.548;2023-05-16T13:41:51;2.47;;;1.20;;
11777;SDS011;5946;51.770;8.548;2023-05-16T13:44:18;5.33;;;1.17;;
11777;SDS011;5946;51.770;8.548;2023-05-16T13:46:44;3.27;;;1.40;;
11777;SDS011;5946;51.770;8.548;2023-05-16T13:49:10;3.73;;;1.23;;
11777;SDS011;5946;51.770;8.548;2023-05-16T13:51:36;4.90;;;1.00;;
11777;SDS011;5946;51.770;8.548;2023-05-16T13:54:02;5.57;;;1.00;;
11777;SDS011;5946;51.770;8.548;2023-05-16T13:56:28;2.87;;;1.30;;
11777;SDS011;5946;51.770;8.548;2023-05-16T13:58:54;6.57;;;1.50;;
11777;SDS011;5946;51.770;8.548;2023-05-16T14:01:20;3.53;;;1.33;;
11777;SDS011;5946;51.770;8.548;2023-05-16T14:03:46;5.97;;;1.47;;
11777;SDS011;5946;51.770;8.548;2023-05-16T14:06:12;3.17;;;1.40;;
11777;SDS011;5946;51.770;8.548;2023-05-16T14:08:38;7.47;;;1.33;;
11777;SDS011;5946;51.770;8.548;2023-05-16T14:11:04;4.60;;;1.30;;
11777;SDS011;5946;51.770;8.548;2023-05-16T14:13:30;5.43;;;1.50;;
11777;SDS011;5946;51.770;8.548;2023-05-16T14:15:56;2.23;;;1.20;;
11777;SDS011;5946;51.770;8.548;2023-05-16T14:18:22;3.83;;;1.40;;
11777;SDS011;5946;51.770;8.548;2023-05-16T14:20:48;6.70;;;1.50;;
11777;SDS011;5946;51.770;8.548;2023-05-16T14:23:14;2.80;;;1.20;;
11777;SDS011;5946;51.770;8.548;2023-05-16T14:25:40;4.75;;;1.48;;
11777;SDS011;5946;51.770;8.548;2023-05-16T14:28:06;4.78;;;1.40;;
11777;SDS011;5946;51.770;8.548;2023-05-16T14:30:32;4.07;;;1.37;;
11777;SDS011;5946;51.770;8.548;2023-05-16T14:32:58;4.83;;;1.40;;
11777;SDS011;5946;51.770;8.548;2023-05-16T14:35:25;6.97;;;1.37;;
11777;SDS011;5946;51.770;8.548;2023-05-16T14:37:51;4.57;;;1.10;;
11777;SDS011;5946;51.770;8.548;2023-05-16T14:40:17;4.37;;;1.43;;
11777;SDS011;5946;51.770;8.548;2023-05-16T14:42:43;5.33;;;1.40;;
11777;SDS011;5946;51.770;8.548;2023-05-16T14:45:09;5.13;;;1.37;;
11777;SDS011;5946;51.770;8.548;2023-05-16T14:47:35;4.63;;;1.33;;
11777;SDS011;5946;51.770;8.548;2023-05-16T14:50:01;2.90;;;1.17;;
11777;SDS011;5946;51.770;8.548;2023-05-16T14:52:27;3.87;;;1.30;;
11777;SDS011;5946;51.770;8.548;2023-05-16T14:54:53;4.27;;;1.40;;
11777;SDS011;5946;51.770;8.548;2023-05-16T14:57:19;4.20;;;1.07;;
11777;SDS011;5946;51.770;8.548;2023-05-16T14:59:45;6.27;;;1.50;;
11777;SDS011;5946;51.770;8.548;2023-05-16T15:02:12;4.27;;;1.27;;
11777;SDS011;5946;51.770;8.548;2023-05-16T15:04:38;3.13;;;1.50;;
11777;SDS011;5946;51.770;8.548;2023-05-16T15:07:04;3.57;;;1.47;;
11777;SDS011;5946;51.770;8.548;2023-05-16T15:09:31;4.20;;;1.33;;